Flight Track Log - Related Links

Times and Time Zones

All times are in EDT time to prevent confusion due to time zone crossing. See the N508QS flight status page for this flight to view local times or setup timezone preferences in your user account.

Time Position Orientation Groundspeed Altitude Reporting Facility
EDT Latitude Longitude Course Direction KTS MPH feet Rate Location/Type
Thu 12:24:57 PM 37.3783 -121.9486 324° Northwest 187 215 1,400  Level Oakland Center
Thu 12:25:43 PM 37.4167 -121.9833 324° Northwest 205 236 4,500 1,663 Climbing Northern Cal TRACON
Thu 12:28:01 PM 37.3806 -121.8503 109° East 235 270 6,500 900 Climbing Oakland Center
Thu 12:29:03 PM 37.3267 -121.8075 148° Southeast 244 281 7,500 1,561 Climbing Oakland Center
Thu 12:30:04 PM 37.3253 -121.8711 268° West 217 250 9,700 2,361 Climbing Oakland Center
Thu 12:31:05 PM 37.3947 -121.9097 336° Northwest 243 280 12,300 2,488 Climbing Oakland Center
Thu 12:32:07 PM 37.4719 -121.9239 352° North 277 319 14,800 2,195 Climbing Oakland Center
Thu 12:33:08 PM 37.5642 -121.9422 351° North 330 380 16,800 1,869 Climbing Oakland Center
Thu 12:34:09 PM 37.6608 -121.8881 24° Northeast 389 448 18,600 1,770 Climbing Oakland Center
Thu 12:35:10 PM 37.7272 -121.7592 57° Northeast 441 507 20,400 1,951 Climbing Oakland Center
Thu 12:36:12 PM 37.7950 -121.6281 57° Northeast 446 513 22,600 2,293 Climbing Oakland Center
Thu 12:37:13 PM 37.8697 -121.4822 57° Northeast 467 537 25,100 2,115 Climbing Oakland Center
Thu 12:38:14 PM 37.9436 -121.3383 57° Northeast 485 558 26,900 1,756 Climbing Oakland Center
Thu 12:39:16 PM 38.0194 -121.1875 57° Northeast 507 583 28,700 2,000 Climbing Oakland Center
Thu 12:40:17 PM 38.1142 -121.0025 57° Northeast 523 602 31,000 2,016 Climbing Oakland Center
Thu 12:41:18 PM 38.1933 -120.8450 57° Northeast 531 611 32,800 1,721 Climbing Oakland Center
Thu 12:42:19 PM 38.2733 -120.6861 57° Northeast 538 619 34,500 1,659 Climbing Oakland Center
Thu 12:43:21 PM 38.3550 -120.5267 57° Northeast 541 623 36,200 1,659 Climbing Oakland Center
Thu 12:44:22 PM 38.4353 -120.3653 58° Northeast 541 623 37,900 1,721 Climbing Oakland Center
Thu 12:45:23 PM 38.5333 -120.2289 47° Northeast 526 605 39,700 1,512 Climbing Oakland Center
Thu 12:46:25 PM 38.6397 -120.1067 42° Northeast 517 595 41,000 634 Climbing Oakland Center
Thu 12:47:26 PM 38.7486 -119.9881 40° Northeast 515 593 41,000  Level Oakland Center
Thu 12:48:27 PM 38.8739 -119.8344 44° Northeast 525 604 41,000  Level Oakland Center
Thu 12:49:28 PM 38.9431 -119.6831 60° Northeast 532 612 41,000 537 Level Oakland Center
Thu 12:50:30 PM 39.0161 -119.5219 60° Northeast 523 602 42,100 927 Climbing Oakland Center
Thu 12:51:31 PM 39.0864 -119.3642 60° Northeast 511 588 42,900 443 Climbing Oakland Center
Thu 12:52:32 PM 39.1586 -119.2033 60° Northeast 517 595 43,000 49 Climbing Oakland Center
Thu 12:53:34 PM 39.2458 -119.0092 60° Northeast 530 610 43,000  Level Oakland Center
Thu 12:54:35 PM 39.3197 -118.8431 60° Northeast 531 611 43,000  Level Oakland Center
Thu 12:55:36 PM 39.3928 -118.6756 61° Northeast 533 613 43,000  Level Oakland Center
Thu 12:56:37 PM 39.4689 -118.5039 60° Northeast 536 617 43,000  Level Oakland Center
Thu 12:57:39 PM 39.5347 -118.3547 60° Northeast 534 615 43,000  Level Oakland Center
Thu 12:58:40 PM 39.6081 -118.1850 61° Northeast 540 621 43,000  Level Oakland Center
Thu 12:59:41 PM 39.6964 -117.9800 61° Northeast 543 625 43,000  Level Oakland Center
Thu 01:00:42 PM 39.7692 -117.8111 61° Northeast 538 619 43,000  Level Oakland Center
Thu 01:01:44 PM 39.8431 -117.6378 61° Northeast 538 619 43,000  Level Oakland Center
Thu 01:02:45 PM 39.9108 -117.4747 62° Northeast 536 617 43,000  Level Oakland Center
Thu 01:03:46 PM 39.9619 -117.3017 69° East 536 617 43,000  Level Oakland Center
Thu 01:04:48 PM 40.0058 -117.0942 75° East 534 615 43,000  Level Oakland Center
Thu 01:05:49 PM 40.0431 -116.9150 75° East 538 619 43,000  Level Oakland Center
Thu 01:06:50 PM 40.0861 -116.7092 75° East 533 613 43,000  Level Oakland Center
Thu 01:07:51 PM 40.1225 -116.5331 75° East 531 611 43,000  Level Oakland Center
Thu 01:09:05 PM 40.1719 -116.2953 75° East 532 612 43,000  Level Salt Lake Center
Thu 01:10:07 PM 40.2086 -116.1178 75° East 530 610 43,000  Level Salt Lake Center
Thu 01:11:08 PM 40.2486 -115.9133 76° East 523 602 43,000  Level Salt Lake Center
Thu 01:12:10 PM 40.2850 -115.7400 75° East 517 595 43,000  Level Salt Lake Center
Thu 01:13:12 PM 40.3278 -115.5344 75° East 524 603 43,000  Level Salt Lake Center
Thu 01:14:14 PM 40.3628 -115.3567 75° East 526 605 43,000  Level Salt Lake Center
Thu 01:15:15 PM 40.3964 -115.1808 76° East 523 602 43,000  Level Salt Lake Center
Thu 01:16:17 PM 40.4364 -114.9758 76° East 519 597 43,000  Level Salt Lake Center
Thu 01:17:19 PM 40.4697 -114.7994 76° East 520 598 43,000  Level Salt Lake Center
Thu 01:18:20 PM 40.5050 -114.6175 76° East 522 601 43,000  Level Salt Lake Center
Thu 01:19:22 PM 40.5453 -114.3922 77° East 529 609 43,000  Level Salt Lake Center
Thu 01:20:24 PM 40.5808 -114.2069 76° East 525 604 43,000  Level Salt Lake Center
Thu 01:21:25 PM 40.6150 -114.0214 76° East 524 603 43,000  Level Salt Lake Center
Thu 01:22:27 PM 40.6481 -113.8367 77° East 521 600 43,000  Level Salt Lake Center
Thu 01:23:28 PM 40.6814 -113.6508 77° East 523 602 43,000  Level Salt Lake Center
Thu 01:24:30 PM 40.7153 -113.4633 77° East 526 605 43,000  Level Salt Lake Center
Thu 01:25:32 PM 40.7486 -113.2792 77° East 521 600 43,000  Level Salt Lake Center
Thu 01:26:33 PM 40.7803 -113.0933 77° East 519 597 43,000  Level Salt Lake Center
Thu 01:27:35 PM 40.8186 -112.8711 77° East 519 597 43,000  Level Salt Lake Center
Thu 01:28:37 PM 40.8500 -112.6864 77° East 518 596 43,000  Level Salt Lake Center
Thu 01:29:38 PM 40.8814 -112.5014 77° East 518 596 43,000  Level Salt Lake Center
Thu 01:30:40 PM 40.9125 -112.3161 77° East 517 595 43,000  Level Salt Lake Center
Thu 01:31:42 PM 40.9431 -112.1328 78° East 515 593 43,000  Level Salt Lake Center
Thu 01:32:43 PM 40.9731 -111.9492 78° East 516 594 43,000  Level Salt Lake Center
Thu 01:33:45 PM 41.0083 -111.7342 78° East 519 597 43,000  Level Salt Lake Center
Thu 01:34:47 PM 41.0367 -111.5567 78° East 517 595 43,000  Level Salt Lake Center
Thu 01:35:48 PM 41.0661 -111.3711 78° East 515 593 43,000  Level Salt Lake Center
Thu 01:36:51 PM 41.0944 -111.1883 78° East 508 585 43,000  Level Salt Lake Center
Thu 01:37:52 PM 41.1228 -111.0044 78° East 510 587 43,000  Level Salt Lake Center
Thu 01:38:53 PM 41.1564 -110.7792 79° East 516 594 43,000  Level Salt Lake Center
Thu 01:39:55 PM 41.1836 -110.6000 79° East 518 596 43,000  Level Salt Lake Center
Thu 01:40:57 PM 41.2114 -110.4217 78° East 516 594 43,000  Level Salt Lake Center
Thu 01:41:59 PM 41.2408 -110.2167 79° East 509 586 43,000 48 Level Salt Lake Center
Thu 01:43:01 PM 41.2669 -110.0400 79° East 509 586 43,100 49 Climbing Salt Lake Center
Thu 01:44:02 PM 41.2964 -109.8336 79° East 511 588 43,100 -49 Level Salt Lake Center
Thu 01:45:04 PM 41.3214 -109.6564 79° East 510 587 43,000 -48 Descending Salt Lake Center
Thu 01:46:06 PM 41.3508 -109.4497 79° East 510 587 43,000  Level Salt Lake Center
Thu 01:47:08 PM 41.3750 -109.2728 80° East 511 588 43,000  Level Salt Lake Center
Thu 01:48:10 PM 41.4025 -109.0828 79° East 503 579 43,000  Level Salt Lake Center
Thu 01:49:12 PM 41.4308 -108.8708 80° East 515 593 43,000  Level Salt Lake Center
Thu 01:50:14 PM 41.4547 -108.6925 80° East 515 593 43,000  Level Salt Lake Center
Thu 01:51:16 PM 41.4819 -108.4847 80° East 511 588 43,000  Level Salt Lake Center
Thu 01:52:18 PM 41.5058 -108.3033 80° East 518 596 43,000  Level Salt Lake Center
Thu 01:53:21 PM 41.5333 -108.0894 80° East 522 601 43,000  Level Denver Center
Thu 01:54:24 PM 41.5553 -107.9078 81° East 520 598 43,000 384 Level Denver Center
Thu 01:55:26 PM 41.5822 -107.6981 80° East 516 594 43,800 823 Climbing Denver Center
Thu 01:56:28 PM 41.6042 -107.5214 81° East 506 582 44,700 581 Climbing Denver Center
Thu 01:57:30 PM 41.6278 -107.3183 81° East 497 572 45,000 145 Climbing Denver Center
Thu 01:58:32 PM 41.6497 -107.1442 80° East 499 574 45,000  Level Denver Center
Thu 01:59:35 PM 41.6731 -106.9392 81° East 500 575 45,000  Level Denver Center
Thu 02:00:49 PM 41.6972 -106.7344 81° East 501 577 45,000  Level Denver Center
Thu 02:01:51 PM 41.7203 -106.5269 81° East 504 580 45,000  Level Denver Center
Thu 02:02:53 PM 41.7414 -106.3372 81° East 509 586 45,000  Level Denver Center
Thu 02:03:55 PM 41.7614 -106.1600 81° East 505 581 45,000  Level Denver Center
Thu 02:04:57 PM 41.7831 -105.9511 82° East 508 585 45,000  Level Denver Center
Thu 02:06:00 PM 41.8011 -105.7722 82° East 510 587 45,000  Level Denver Center
Thu 02:07:02 PM 41.8267 -105.5625 81° East 513 590 45,000  Level Denver Center
Thu 02:08:04 PM 41.8422 -105.3803 83° East 515 593 45,000  Level Denver Center
Thu 02:09:06 PM 41.8650 -105.1708 82° East 513 590 45,000  Level Denver Center
Thu 02:10:08 PM 41.8828 -104.9914 82° East 510 587 45,000  Level Denver Center
Thu 02:11:10 PM 41.9036 -104.7819 82° East 509 586 45,000  Level Denver Center
Thu 02:12:12 PM 41.9206 -104.6028 83° East 509 586 45,000  Level Denver Center
Thu 02:13:14 PM 41.9411 -104.3944 82° East 508 585 45,000  Level Denver Center
Thu 02:14:16 PM 41.9581 -104.2147 83° East 509 586 45,000  Level Denver Center
Thu 02:15:18 PM 41.9769 -104.0050 83° East 510 587 45,000  Level Denver Center
Thu 02:16:20 PM 41.9911 -103.8256 84° East 508 585 45,000  Level Denver Center
Thu 02:17:22 PM 42.0106 -103.6136 83° East 511 588 45,000  Level Denver Center
Thu 02:18:24 PM 42.0261 -103.4308 83° East 515 593 45,000  Level Denver Center
Thu 02:19:26 PM 42.0456 -103.2183 83° East 514 592 45,000  Level Denver Center
Thu 02:20:28 PM 42.0606 -103.0347 84° East 516 594 45,000  Level Denver Center
Thu 02:21:30 PM 42.0772 -102.8219 84° East 515 593 45,000  Level Denver Center
Thu 02:22:32 PM 42.0928 -102.6383 83° East 515 593 45,000  Level Denver Center
Thu 02:23:34 PM 42.1092 -102.4239 84° East 516 594 45,000  Level Denver Center
Thu 02:24:36 PM 42.1231 -102.2397 84° East 517 595 45,000  Level Denver Center
Thu 02:25:38 PM 42.1375 -102.0389 84° East 517 595 45,000  Level Denver Center
Thu 02:26:40 PM 42.1539 -101.8233 84° East 518 596 45,000  Level Denver Center
Thu 02:27:42 PM 42.1667 -101.6381 85° East 518 596 45,000  Level Denver Center
Thu 02:28:44 PM 42.1789 -101.4528 85° East 517 595 45,000  Level Denver Center
Thu 02:29:46 PM 42.1933 -101.2356 85° East 520 598 45,000  Level Denver Center
Thu 02:30:48 PM 42.2061 -101.0514 85° East 516 594 45,000  Level Denver Center
Thu 02:31:50 PM 42.2194 -100.8356 85° East 517 595 45,000  Level Denver Center
Thu 02:32:52 PM 42.2303 -100.6519 85° East 515 593 45,000  Level Denver Center
Thu 02:33:54 PM 42.2433 -100.4381 85° East 513 590 45,000  Level Denver Center
Thu 02:34:56 PM 42.2536 -100.2539 86° East 512 589 45,000  Level Denver Center
Thu 02:35:58 PM 42.2661 -100.0411 85° East 512 589 45,000  Level Denver Center
Thu 02:37:00 PM 42.2753 -99.8556 86° East 516 594 45,000  Level Denver Center
Thu 02:38:02 PM 42.2867 -99.6597 85° East 508 585 45,000  Level Denver Center
Thu 02:39:04 PM 42.2964 -99.4678 86° East 509 586 45,000  Level Denver Center
Thu 02:40:06 PM 42.3053 -99.2764 86° East 509 586 45,000  Level Denver Center
Thu 02:40:27 PM 42.3097 -99.2006 85° East 510 587 45,000  Level Minneapolis Center
Thu 02:41:29 PM 42.3189 -99.0064 86° East 513 590 45,000  Level Minneapolis Center
Thu 02:42:43 PM 42.3281 -98.8128 86° East 514 592 45,000  Level Minneapolis Center
Thu 02:43:45 PM 42.3372 -98.5847 87° East 510 587 45,000  Level Minneapolis Center
Thu 02:44:47 PM 42.3458 -98.3928 86° East 510 587 45,000  Level Minneapolis Center
Thu 02:45:50 PM 42.3550 -98.1619 87° East 510 587 45,000  Level Minneapolis Center
Thu 02:46:52 PM 42.3619 -97.9667 87° East 516 594 45,000  Level Minneapolis Center
Thu 02:47:54 PM 42.3681 -97.7817 87° East 506 582 45,000  Level Minneapolis Center
Thu 02:48:56 PM 42.3753 -97.5931 87° East 502 578 45,000  Level Minneapolis Center
Thu 02:49:58 PM 42.3808 -97.4028 88° East 503 579 45,000  Level Minneapolis Center
Thu 02:51:00 PM 42.3881 -97.2119 87° East 505 581 45,000  Level Minneapolis Center
Thu 02:52:02 PM 42.3944 -96.9822 88° East 509 586 45,000  Level Minneapolis Center
Thu 02:53:04 PM 42.3997 -96.7914 88° East 508 585 45,000  Level Minneapolis Center
Thu 02:54:06 PM 42.4056 -96.5994 88° East 508 585 45,000  Level Minneapolis Center
Thu 02:55:08 PM 42.4097 -96.4089 88° East 507 583 45,000  Level Minneapolis Center
Thu 02:56:10 PM 42.4136 -96.2153 88° East 511 588 45,000  Level Minneapolis Center
Thu 02:57:12 PM 42.4164 -96.0603 89° East 512 589 45,000  Level Minneapolis Center
Thu 02:58:14 PM 42.4208 -95.8264 88° East 514 592 45,000  Level Minneapolis Center
Thu 02:59:16 PM 42.4253 -95.5931 88° East 517 595 45,000  Level Minneapolis Center
Thu 03:00:19 PM 42.4278 -95.3989 89° East 515 593 45,000  Level Minneapolis Center
Thu 03:01:21 PM 42.4303 -95.2044 89° East 515 593 45,000  Level Minneapolis Center
Thu 03:02:23 PM 42.4336 -95.0089 89° East 518 596 45,000  Level Minneapolis Center
Thu 03:03:25 PM 42.4344 -94.8139 90° East 517 595 45,000  Level Minneapolis Center
Thu 03:04:27 PM 42.4369 -94.6181 89° East 518 596 45,000  Level Minneapolis Center
Thu 03:05:29 PM 42.4367 -94.4219 90° East 520 598 45,000  Level Minneapolis Center
Thu 03:06:31 PM 42.4378 -94.2194 90° East 518 596 45,000  Level Minneapolis Center
Thu 03:07:33 PM 42.4392 -94.0275 89° East 517 595 45,000  Level Minneapolis Center
Thu 03:08:35 PM 42.4394 -93.7961 90° East 517 595 45,000  Level Minneapolis Center
Thu 03:09:37 PM 42.4397 -93.6019 90° East 519 597 45,000  Level Minneapolis Center
Thu 03:10:39 PM 42.4394 -93.4083 90° East 521 600 45,000  Level Minneapolis Center
Thu 03:11:41 PM 42.4389 -93.2156 90° East 519 597 45,000  Level Minneapolis Center
Thu 03:12:44 PM 42.4375 -92.9861 90° East 517 595 45,000  Level Minneapolis Center
Thu 03:13:45 PM 42.4367 -92.8308 90° East 519 597 45,000  Level Minneapolis Center
Thu 03:14:48 PM 42.4350 -92.5983 90° East 522 601 45,000  Level Minneapolis Center
Thu 03:15:50 PM 42.4333 -92.4042 91° East 522 601 45,000  Level Minneapolis Center
Thu 03:16:52 PM 42.4303 -92.2106 91° East 521 600 45,000  Level Minneapolis Center
Thu 03:17:20 PM 42.4292 -92.0933 91° East 522 601 45,000  Level Chicago Center
Thu 03:18:22 PM 42.4269 -91.8997 91° East 524 603 45,000  Level Chicago Center
Thu 03:19:24 PM 42.4225 -91.7075 92° East 523 602 45,000  Level Chicago Center
Thu 03:20:26 PM 42.4186 -91.4769 91° East 523 602 45,000  Level Chicago Center
Thu 03:21:28 PM 42.4147 -91.2864 92° East 517 595 45,000  Level Chicago Center
Thu 03:22:30 PM 42.4097 -91.0950 92° East 518 596 45,000  Level Chicago Center
Thu 03:23:33 PM 42.4053 -90.9022 92° East 519 597 45,000  Level Chicago Center
Thu 03:24:35 PM 42.3975 -90.6708 93° East 521 600 45,000  Level Chicago Center
Thu 03:25:37 PM 42.3881 -90.4786 94° East 519 597 45,000  Level Chicago Center
Thu 03:26:39 PM 42.3767 -90.2853 94° East 520 598 45,000  Level Chicago Center
Thu 03:27:41 PM 42.3661 -90.0928 94° East 519 597 45,000  Level Chicago Center
Thu 03:28:43 PM 42.3542 -89.8797 94° East 522 601 45,000  Level Chicago Center
Thu 03:29:45 PM 42.3419 -89.6850 95° East 521 600 45,000  Level Chicago Center
Thu 03:30:47 PM 42.3278 -89.4581 95° East 520 598 45,000  Level Chicago Center
Thu 03:31:49 PM 42.3158 -89.2625 95° East 522 601 45,000  Level Chicago Center
Thu 03:32:51 PM 42.3028 -89.0683 95° East 521 600 45,000  Level Chicago Center
Thu 03:33:54 PM 42.2892 -88.8742 95° East 521 600 45,000  Level Chicago Center
Thu 03:34:56 PM 42.2750 -88.6617 95° East 519 597 45,000  Level Chicago Center
Thu 03:35:58 PM 42.2611 -88.4669 95° East 520 598 45,000  Level Chicago Center
Thu 03:37:00 PM 42.2456 -88.2711 96° East 524 603 45,000  Level Chicago Center
Thu 03:38:02 PM 42.2314 -88.0783 96° East 520 598 45,000  Level Chicago Center
Thu 03:39:04 PM 42.2169 -87.8833 96° East 522 601 45,000  Level Chicago Center
Thu 03:40:06 PM 42.2047 -87.6517 94° East 518 596 45,000  Level Chicago Center
Thu 03:41:08 PM 42.1944 -87.4569 94° East 520 598 45,000  Level Chicago Center
Thu 03:42:10 PM 42.1842 -87.2622 94° East 522 601 45,000  Level Chicago Center
Thu 03:43:12 PM 42.1728 -87.0675 94° East 521 600 45,000  Level Chicago Center
Thu 03:44:15 PM 42.1597 -86.8711 95° East 527 606 45,000  Level Chicago Center
Thu 03:45:17 PM 42.1472 -86.6592 94° East 523 602 45,000  Level Chicago Center
Thu 03:46:19 PM 42.1353 -86.4636 95° East 523 602 45,000  Level Chicago Center
Thu 03:47:21 PM 42.1222 -86.2692 95° East 522 601 45,000  Level Chicago Center
Thu 03:48:23 PM 42.1094 -86.0719 95° East 526 605 45,000  Level Chicago Center
Thu 03:49:25 PM 42.0933 -85.8539 96° East 525 604 45,000  Level Chicago Center
Thu 03:50:27 PM 42.0808 -85.6586 95° East 525 604 45,000  Level Chicago Center
Thu 03:51:29 PM 42.0667 -85.4631 96° East 529 609 45,000  Level Chicago Center
Thu 03:52:21 PM 42.0556 -85.2792 95° East 539 620 45,000  Level Cleveland Center
Thu 03:53:21 PM 42.0425 -85.0853 95° East 534 615 45,000  Level Cleveland Center
Thu 03:54:21 PM 42.0419 -84.8839 90° East 534 615 45,000  Level Cleveland Center
Thu 03:55:21 PM 42.0447 -84.6911 89° East 528 608 45,000  Level Cleveland Center
Thu 03:56:21 PM 42.0456 -84.4925 90° East 523 602 45,000  Level Cleveland Center
Thu 03:57:21 PM 42.0422 -84.2797 91° East 523 602 45,000  Level Cleveland Center
Thu 03:58:21 PM 42.0439 -84.0869 89° East 518 596 45,000  Level Cleveland Center
Thu 03:59:21 PM 42.0436 -83.8911 90° East 518 596 45,000  Level Cleveland Center
Thu 04:00:21 PM 42.0447 -83.6981 89° East 518 596 45,000  Level Cleveland Center
Thu 04:01:21 PM 42.0472 -83.5306 89° East 507 583 45,000  Level Cleveland Center
Thu 04:02:21 PM 42.0542 -83.3378 87° East 507 583 45,000  Level Cleveland Center
Thu 04:03:21 PM 42.0611 -83.1256 87° East 512 589 45,000  Level Cleveland Center
Thu 04:04:21 PM 42.0714 -82.9356 86° East 512 589 45,000  Level Cleveland Center
Thu 04:05:21 PM 42.0792 -82.7456 87° East 512 589 45,000  Level Cleveland Center
Thu 04:06:21 PM 42.0911 -82.5558 85° East 506 582 45,000  Level Cleveland Center
Thu 04:07:21 PM 42.1067 -82.3603 84° East 513 590 45,000  Level Cleveland Center
Thu 04:08:21 PM 42.1053 -82.1672 90° East 513 590 45,000  Level Cleveland Center
Thu 04:09:21 PM 42.1119 -81.9828 87° East 507 583 45,000  Level Cleveland Center
Thu 04:10:21 PM 42.1203 -81.7869 87° East 507 583 45,000  Level Cleveland Center
Thu 04:11:21 PM 42.1264 -81.5967 87° East 512 589 45,000  Level Cleveland Center
Thu 04:12:21 PM 42.1342 -81.4231 86° East 512 589 45,000  Level Cleveland Center
Thu 04:13:21 PM 42.1417 -81.2300 87° East 512 589 45,000  Level Cleveland Center
Thu 04:14:21 PM 42.1444 -81.0397 89° East 512 589 45,000  Level Cleveland Center
Thu 04:15:21 PM 42.1514 -80.8464 87° East 517 595 45,000  Level Cleveland Center
Thu 04:16:21 PM 42.1581 -80.6561 87° East 508 585 45,000  Level Cleveland Center
Thu 04:17:21 PM 42.1619 -80.4486 88° East 503 579 45,000  Level Cleveland Center
Thu 04:18:21 PM 42.1681 -80.2583 87° East 509 586 45,000  Level Cleveland Center
Thu 04:19:21 PM 42.1714 -80.0650 89° East 509 586 45,000  Level Cleveland Center
Thu 04:20:21 PM 42.1767 -79.8800 88° East 509 586 45,000  Level Cleveland Center
Thu 04:21:21 PM 42.1797 -79.6978 89° East 498 573 45,000  Level Cleveland Center
Thu 04:22:21 PM 42.1825 -79.5353 89° East 488 562 45,000  Level Cleveland Center
Thu 04:23:21 PM 42.1869 -79.3531 88° East 483 556 45,000  Level Cleveland Center
Thu 04:24:21 PM 42.1869 -79.1681 90° East 478 550 45,000 -400 Level Cleveland Center
Thu 04:25:21 PM 42.1553 -78.9894 103° East 478 550 44,200 -1,150 Descending Cleveland Center
Thu 04:26:21 PM 42.1131 -78.8114 108° East 483 556 42,700 -1,500 Descending Cleveland Center
Thu 04:27:21 PM 42.0686 -78.6392 109° East 489 563 41,200 -1,450 Descending Cleveland Center
Thu 04:28:21 PM 42.0217 -78.4617 110° East 500 575 39,800 -1,900 Descending Cleveland Center
Thu 04:29:21 PM 41.9767 -78.2817 109° East 500 575 37,400 -1,745 Descending Cleveland Center
Thu 04:31:06 PM 41.8964 -77.9797 110° East 506 582 35,000 -867 Descending New York Center
Thu 04:32:07 PM 41.8506 -77.8019 109° East 506 582 35,000  Level New York Center
Thu 04:33:05 PM 41.8047 -77.6272 109° East 506 582 35,000  Level New York Center
Thu 04:34:06 PM 41.7586 -77.4472 109° East 506 582 35,000 -700 Level New York Center
Thu 04:35:05 PM 41.7100 -77.2731 110° East 506 582 33,600 -1,765 Descending New York Center
Thu 04:36:05 PM 41.6631 -77.0989 110° East 506 582 31,500 -2,150 Descending New York Center
Thu 04:37:05 PM 41.6144 -76.9167 110° East 511 588 29,300 -2,182 Descending New York Center
Thu 04:38:06 PM 41.5653 -76.7375 110° East 511 588 27,100 -2,331 Descending New York Center
Thu 04:39:06 PM 41.5142 -76.5503 110° East 502 578 24,600 -1,537 Descending New York Center
Thu 04:40:07 PM 41.4681 -76.3828 110° East 490 564 24,000 -1,190 Descending New York Center
Thu 04:41:07 PM 41.4236 -76.2158 109° East 479 551 22,200 -1,932 Descending New York Center
Thu 04:42:05 PM 41.3767 -76.0572 111° Southeast 474 545 20,200 -1,627 Descending New York Center
Thu 04:43:05 PM 41.3314 -75.9017 111° Southeast 463 533 19,000 -595 Descending New York Center
Thu 04:44:06 PM 41.2881 -75.7492 111° Southeast 452 520 19,000 -738 Level New York Center
Thu 04:45:07 PM 41.2422 -75.5969 112° Southeast 445 512 17,500 -1,664 Descending New York Center
Thu 04:46:05 PM 41.1975 -75.4642 114° Southeast 440 506 15,700 -2,168 Descending New York Center
Thu 04:47:06 PM 41.1508 -75.3258 114° Southeast 420 483 13,200 -2,200 Descending New York Center
Thu 04:48:05 PM 41.1706 -75.1919 79° East 349 402 11,300 -1,950 Descending New York Center
Thu 04:49:06 PM 41.1533 -75.0917 103° East 282 325 9,300 -1,918 Descending New York Center
Thu 04:50:07 PM 41.0911 -75.0272 142° Southeast 264 304 7,400 -1,714 Descending New York Center
Thu 04:51:05 PM 41.0269 -74.9572 141° Southeast 281 323 5,900 -1,311 Descending New York Center
Thu 04:52:06 PM 40.9972 -74.8536 111° Southeast 287 330 4,800 -1,438 Descending New York Center
Thu 04:53:06 PM 40.9794 -74.7647 105° East 287 330 3,000 -893 Descending New York Center
Thu 04:54:07 PM 40.9539 -74.6614 108° East 282 325 3,000  Level New York Center
Thu 04:55:04 PM 40.9356 -74.5808 107° East 261 300 3,000  Level New York Center
Thu 04:56:05 PM 40.9156 -74.4864 106° East 250 288 3,000 -198 Level New York Center
Thu 04:57:05 PM 40.8972 -74.4111 108° East 240 276 2,600 -793 Descending New York Center
Thu 04:58:06 PM 40.8528 -74.3678 144° Southeast 193 222 1,400 -1,111 Descending New York Center
Thu 04:58:26 PM 40.8333 -74.3833 211° Southwest 166 191 1,100 2,281 Descending New York TRACON
Thu 05:00:07 PM 40.7806 -74.3447 151° Southeast 174 200 6,000 1,826 Climbing New York Center
Thu 05:01:07 PM 40.7436 -74.3208 154° Southeast 174 200 6,000  Level New York Center
Thu 05:02:05 PM 40.7089 -74.2997 155° Southeast 174 200 6,000  Level New York Center
Thu 05:03:05 PM 40.6864 -74.2850 154° Southeast 174 200 6,000  Level New York Center

Login

Don't have an account? Register now (free) for customized features, flight alerts, and more!